Aviation Digital Data Service (ADDS)

Output produced by METARs form (1222 UTC 25 June 2019)
found at http://www.aviationweather.gov/metar/data/
 
METAR text: ZSJN 250216Z 16002MPS 060V230 CAVOK 31/15 Q1009 NOSIG
Conditions at: ZSJN (JINAN YAOQIANG , CN) observed 0216 UTC 25 June 2019
Temperature: 31.0°C (88°F)
Dewpoint: 15.0°C (59°F) [RH = 38%]
Pressure (altimeter): 29.79 inches Hg (1009.0 mb)
Winds: from the SSE (160 degrees) at 5 MPH (4 knots; 2.1 m/s)
Visibility: 6 or more miles (10+ km)
Ceiling: ceiling and visibility are OK
Clouds: unknown
Weather: no significant weather observed at this time

METAR text: ZSJN 241038Z 22006MPS 9999 SCT030 34/13 Q1005 NOSIG
Conditions at: ZSJN (JINAN YAOQIANG , CN) observed 1038 UTC 24 June 2019
Temperature: 34.0°C (93°F)
Dewpoint: 13.0°C (55°F) [RH = 28%]
Pressure (altimeter): 29.68 inches Hg (1005.0 mb)
Winds: from the SW (220 degrees) at 14 MPH (12 knots; 6.2 m/s)
Visibility: 6 or more miles (10+ km)
Ceiling: at least 12,000 feet AGL
Clouds: scattered clouds at 3000 feet AGL
Weather: no significant weather observed at this time

Forecast for: ZSJN (JINAN YAOQIANG , CN)
Text: TAF ZSJN 250905Z 2512/2612 18003MPS 5000 HZ NSC TX35/06Z TN20/21Z
Forecast period: 1200 UTC 25 June 2019 to 1200 UTC 26 June 2019
Forecast type: FROM: standard forecast or significant change
Winds: from the S (180 degrees) at 7 MPH (6 knots; 3.1 m/s)
Visibility: 3 miles (5 km)
Ceiling: unknown
Clouds: missing
Weather: HZ  (haze)